Terminal Aerodrome Forecast
Issued by NWS Sterling, VA

Current Version | Previous Version | Graphics & Text | Print | Product List | Glossary On
Versions: 1 2 3 4 5 6 7 8 9 10 11 12 13 14 15 16 17 18 19 20 21 22 23 24 25 26
000
FTUS41 KLWX 282335
TAFDCA
TAF
KDCA 282335Z 0100/0124 18003KT P6SM SCT100
     FM010300 VRB03KT P6SM BKN080
     FM011200 VRB03KT 5SM -SN BR SCT030 OVC070
     FM011500 18005KT 3SM -FZRASNPL BR SCT008 OVC030
     FM011800 17006KT 5SM -FZRA BR SCT009 OVC020=

USA.gov is the U.S. government's official web portal to all federal, state and local government web resources and services.